Time;durP1;ratioP1;P1;durP2;ratioP2;P2;SDS_P1;SDS_P2;PMS_P1;PMS_P2;Temp;Humidity;BMP_temperature;BMP_pressure;BME280_temperature;BME280_humidity;BME280_pressure;Samples;Min_cycle;Max_cycle;Signal;HPM_P1;HPM_P2
2022/07/21 00:02:15;;;;;;;9.60;8.60;;;24.10;95.90;;;24.51;61.50;98931.81;4991714;28;114095;-75
2022/07/21 00:04:41;;;;;;;11.77;8.53;;;24.10;96.00;;;24.49;61.55;98934.22;4984742;28;114077;-76
2022/07/21 00:07:08;;;;;;;12.23;9.53;;;24.10;96.10;;;24.46;61.46;98916.88;4977645;28;124137;-76
2022/07/21 00:09:35;;;;;;;11.60;9.30;;;24.00;96.40;;;24.43;61.66;98926.13;4979980;28;123914;-75
2022/07/21 00:12:04;;;;;;;14.73;9.10;;;24.00;96.10;;;24.38;61.73;98922.91;4979522;28;113578;-76
2022/07/21 00:14:31;;;;;;;13.07;9.13;;;24.00;96.10;;;24.30;61.70;98924.09;5009845;28;113901;-76
2022/07/21 00:16:57;;;;;;;11.70;9.60;;;23.90;96.10;;;24.27;62.00;98941.84;4987090;28;124111;-75
2022/07/21 00:19:24;;;;;;;11.23;9.93;;;23.90;96.20;;;24.26;61.97;98935.41;4969184;28;123546;-76
2022/07/21 00:21:50;;;;;;;12.00;9.40;;;23.90;96.30;;;24.26;62.19;98938.22;4973771;28;114252;-75
2022/07/21 00:24:17;;;;;;;11.57;9.53;;;23.90;96.40;;;24.24;62.13;98941.44;4974862;28;113187;-76
2022/07/21 00:26:43;;;;;;;11.97;10.10;;;23.90;96.40;;;24.24;62.02;98947.09;4972386;28;124210;-75
2022/07/21 00:29:10;;;;;;;11.10;9.87;;;23.80;96.40;;;24.23;62.37;98945.50;4982720;28;124286;-76
2022/07/21 00:31:36;;;;;;;15.30;10.03;;;23.80;96.50;;;24.23;62.29;98962.44;4975940;28;115179;-75
2022/07/21 00:34:03;;;;;;;12.10;9.53;;;23.80;96.50;;;24.18;62.20;98960.00;4985957;28;114944;-76
2022/07/21 00:36:29;;;;;;;11.63;8.83;;;23.80;96.40;;;24.11;61.89;98965.63;4969836;28;123877;-76
2022/07/21 00:38:56;;;;;;;13.07;9.60;;;23.70;96.30;;;24.06;62.06;98946.25;4979003;28;123000;-76
2022/07/21 00:41:22;;;;;;;9.83;8.83;;;23.70;96.30;;;24.08;62.23;98948.69;4989460;28;114738;-76
2022/07/21 00:43:49;;;;;;;11.13;8.60;;;23.70;96.40;;;24.12;62.28;98955.13;4984727;28;112957;-76
2022/07/21 00:46:15;;;;;;;9.87;8.87;;;23.70;96.50;;;24.13;62.30;98951.91;4969264;28;124117;-76
2022/07/21 00:48:42;;;;;;;10.13;7.97;;;23.70;96.50;;;24.14;61.97;98947.06;4982394;28;122933;-76
2022/07/21 00:51:08;;;;;;;10.73;8.10;;;23.70;96.50;;;24.14;61.81;98930.94;4976384;28;114283;-76
2022/07/21 00:53:35;;;;;;;12.87;10.00;;;23.70;96.30;;;24.10;61.59;98927.31;4987929;28;113849;-75
2022/07/21 00:56:02;;;;;;;13.63;8.63;;;23.70;96.20;;;24.03;61.47;98930.91;4974421;28;124234;-76
2022/07/21 00:58:29;;;;;;;10.20;7.73;;;23.60;96.20;;;23.98;61.76;98930.50;4980227;28;123807;-75
2022/07/21 01:00:55;;;;;;;10.30;8.73;;;23.60;96.10;;;23.88;61.88;98939.75;4988729;28;114212;-75
2022/07/21 01:03:23;;;;;;;15.27;9.47;;;23.50;96.10;;;23.78;62.31;98941.34;4977330;28;114068;-75
2022/07/21 01:05:49;;;;;;;9.50;8.33;;;23.50;96.20;;;23.75;62.37;98945.78;4973991;28;123382;-77
2022/07/21 01:08:17;;;;;;;12.60;9.80;;;23.40;96.30;;;23.70;62.39;98951.75;4977285;28;123238;-75
2022/07/21 01:10:43;;;;;;;10.00;8.97;;;23.30;96.50;;;23.63;62.82;98957.38;4991835;28;114496;-75
2022/07/21 01:13:10;;;;;;;12.17;9.90;;;23.30;96.60;;;23.56;62.85;98957.31;4991756;28;112816;-75
2022/07/21 01:15:37;;;;;;;10.80;9.53;;;23.20;96.70;;;23.48;62.92;98950.03;4982547;28;125825;-76
2022/07/21 01:18:04;;;;;;;8.73;7.63;;;23.10;96.70;;;23.45;63.10;98962.09;4992285;28;124278;-76
2022/07/21 01:20:37;;;;;;;12.00;9.97;;;23.10;96.90;;;23.39;63.15;98964.50;4994413;28;115174;-75
2022/07/21 01:23:04;;;;;;;9.27;8.30;;;23.00;97.00;;;23.33;63.40;98964.06;4995963;28;115003;-76
2022/07/21 01:25:31;;;;;;;13.03;9.37;;;22.90;97.00;;;23.29;63.59;98960.44;4995703;28;123148;-76
2022/07/21 01:27:58;;;;;;;9.17;7.97;;;22.90;97.00;;;23.29;63.52;98960.44;4998910;28;123811;-76
2022/07/21 01:30:25;;;;;;;9.30;8.00;;;22.90;97.10;;;23.32;63.52;98956.81;4995806;28;114136;-76
2022/07/21 01:32:51;;;;;;;11.20;8.87;;;23.00;97.20;;;23.36;63.62;98957.63;4994035;28;114047;-75
2022/07/21 01:35:18;;;;;;;15.40;8.63;;;22.90;97.20;;;23.41;63.41;98969.75;4994571;28;124048;-76
2022/07/21 01:37:47;;;;;;;11.33;8.27;;;23.00;97.30;;;23.44;63.34;98971.78;4995538;28;123847;-76
2022/07/21 01:43:03;;;;;;;12.90;9.27;;;23.00;97.20;;;23.40;63.19;98965.31;4992783;28;114895;-75
2022/07/21 01:45:29;;;;;;;10.20;8.80;;;22.90;97.10;;;23.37;63.28;98970.56;4991343;28;124059;-76
2022/07/21 01:47:56;;;;;;;10.83;8.40;;;22.90;97.10;;;23.38;63.00;98985.47;4990647;28;123820;-76
2022/07/21 01:50:26;;;;;;;11.80;8.00;;;22.90;97.00;;;23.35;62.83;98981.41;4992857;28;114518;-77
2022/07/21 01:52:58;;;;;;;10.77;7.90;;;22.90;96.90;;;23.34;62.59;98993.06;4981545;28;114098;-74
2022/07/21 01:55:26;;;;;;;9.13;7.13;;;22.90;96.90;;;23.35;62.76;98998.31;4990312;28;124294;-74
2022/07/21 01:57:52;;;;;;;10.97;7.70;;;22.90;96.80;;;23.37;62.69;99003.56;4994718;28;124060;-74
2022/07/21 02:00:19;;;;;;;10.50;8.77;;;22.90;96.80;;;23.38;62.56;99020.09;4991544;28;113327;-76
2022/07/21 02:02:46;;;;;;;9.87;7.67;;;22.90;96.80;;;23.37;62.31;99032.59;4980678;28;114072;-76
2022/07/21 02:05:12;;;;;;;9.37;7.90;;;22.90;96.60;;;23.34;62.26;99033.34;4975410;28;123896;-76
2022/07/21 02:07:39;;;;;;;9.17;7.80;;;22.90;96.90;;;23.33;62.36;99011.19;4985062;28;124014;-74
2022/07/21 02:10:06;;;;;;;12.33;8.57;;;22.90;96.60;;;23.35;62.44;99008.81;4993558;28;115249;-74
2022/07/21 02:12:32;;;;;;;9.07;7.83;;;22.90;96.70;;;23.35;62.71;99001.16;4997501;28;114710;-76
2022/07/21 02:14:59;;;;;;;10.70;8.40;;;22.90;96.80;;;23.38;62.82;99005.19;4992702;28;124131;-77
2022/07/21 02:17:25;;;;;;;7.97;7.17;;;22.90;96.90;;;23.40;62.75;98997.16;4976724;28;123834;-77
2022/07/21 02:19:52;;;;;;;8.67;7.20;;;22.90;96.90;;;23.41;62.84;98989.50;4977133;28;114201;-76
2022/07/21 02:22:18;;;;;;;10.43;7.77;;;23.00;97.00;;;23.44;63.00;98977.44;5005245;28;114409;-77
2022/07/21 02:24:45;;;;;;;9.13;7.97;;;23.00;97.10;;;23.48;62.83;98978.22;5006865;28;123961;-76
2022/07/21 02:27:11;;;;;;;9.47;8.07;;;23.00;97.10;;;23.51;63.04;98988.75;4991619;28;124104;-75
2022/07/21 02:29:38;;;;;;;8.30;7.50;;;23.00;97.20;;;23.53;62.82;99006.88;4973035;28;112308;-76
2022/07/21 02:32:05;;;;;;;10.03;7.83;;;23.10;97.20;;;23.50;63.05;99006.84;4981840;28;113923;-76
2022/07/21 02:34:31;;;;;;;11.17;8.03;;;23.00;97.40;;;23.46;63.04;98998.38;4978353;28;123805;-74
2022/07/21 02:36:58;;;;;;;9.33;8.43;;;24.10;98.00;;;23.44;63.32;98992.31;4975502;28;124360;-74
2022/07/21 02:39:25;;;;;;;9.37;7.40;;;23.00;97.30;;;23.47;63.28;98993.56;4989536;28;113517;-74
2022/07/21 02:41:52;;;;;;;7.87;7.07;;;23.00;97.40;;;23.49;63.14;98993.97;4994413;28;114204;-75
2022/07/21 02:44:18;;;;;;;9.07;7.93;;;23.00;97.40;;;23.49;63.02;98993.97;4974220;28;123870;-74
2022/07/21 02:46:45;;;;;;;8.10;7.27;;;23.00;97.30;;;23.48;62.97;98993.16;4991221;28;124026;-75
2022/07/21 02:49:11;;;;;;;9.10;7.50;;;23.00;97.20;;;23.48;62.80;98989.53;4993500;28;114006;-74
2022/07/21 02:51:38;;;;;;;9.30;7.90;;;23.00;97.10;;;23.50;62.74;98989.94;4985227;28;113983;-74
2022/07/21 02:54:04;;;;;;;9.00;7.23;;;23.00;97.10;;;23.49;62.51;99002.44;4992234;28;123615;-74
2022/07/21 02:56:31;;;;;;;7.80;6.30;;;23.00;97.00;;;23.46;62.59;99004.03;4989227;28;123940;-74
2022/07/21 02:58:57;;;;;;;7.67;6.90;;;23.00;96.90;;;23.46;62.71;99003.22;4974716;28;115301;-74
2022/07/21 03:01:24;;;;;;;7.37;6.53;;;23.00;97.00;;;23.44;62.61;98994.34;4993323;28;115185;-74
2022/07/21 03:03:50;;;;;;;9.13;7.60;;;23.00;97.00;;;23.43;62.93;98992.72;5002542;28;123310;-75
2022/07/21 03:06:17;;;;;;;8.97;6.93;;;23.00;97.10;;;23.44;63.01;99008.44;4992412;28;124117;-74
2022/07/21 03:08:44;;;;;;;11.60;6.97;;;22.90;97.10;;;23.43;62.98;98998.34;4992778;28;112689;-75
2022/07/21 03:11:10;;;;;;;10.40;7.07;;;23.00;97.20;;;23.41;63.00;98995.13;4989793;28;114130;-75
2022/07/21 03:13:37;;;;;;;8.27;6.60;;;22.90;97.20;;;23.39;63.13;98987.06;4980766;28;123145;-75
2022/07/21 03:16:03;;;;;;;7.37;6.67;;;22.90;97.20;;;23.37;62.97;98990.28;4983372;28;123710;-75
2022/07/21 03:18:30;;;;;;;7.37;6.30;;;22.90;97.20;;;23.35;62.75;99012.44;4991314;28;113324;-75
2022/07/21 03:20:58;;;;;;;7.77;6.47;;;22.90;97.10;;;23.29;63.30;99008.38;4971262;28;114062;-75
2022/07/21 03:23:24;;;;;;;10.10;7.63;;;22.80;97.20;;;23.26;62.94;99003.50;4974970;28;124045;-75
2022/07/21 03:25:51;;;;;;;8.07;6.70;;;22.80;97.20;;;23.26;63.23;99011.16;4999477;28;123127;-75
2022/07/21 03:28:17;;;;;;;9.83;7.10;;;22.80;97.30;;;23.25;63.11;99013.16;4995196;28;114710;-75
2022/07/21 03:30:44;;;;;;;9.93;6.33;;;22.80;97.30;;;23.28;63.24;99020.84;4972490;28;113897;-75
2022/07/21 03:33:10;;;;;;;8.63;6.90;;;22.80;97.30;;;23.30;63.14;99023.28;4984035;28;124554;-75
2022/07/21 03:35:37;;;;;;;6.73;5.57;;;22.80;97.30;;;23.31;63.40;99022.84;4990192;28;123925;-76
2022/07/21 03:38:05;;;;;;;8.20;6.60;;;22.80;97.30;;;23.34;63.23;99024.09;4987790;28;114387;-76
2022/07/21 03:40:36;;;;;;;10.80;7.20;;;22.90;97.40;;;23.38;63.06;99039.03;4971284;28;113827;-75
2022/07/21 03:43:06;;;;;;;8.13;6.20;;;22.90;97.40;;;23.38;63.33;99039.84;4984093;28;124179;-75
2022/07/21 03:45:34;;;;;;;8.80;6.00;;;22.90;97.40;;;23.42;63.22;99041.88;4979553;28;123812;-76
2022/07/21 03:48:04;;;;;;;10.40;6.50;;;22.90;97.40;;;23.43;63.07;99044.31;4975995;28;114453;-76
2022/07/21 03:50:31;;;;;;;8.10;6.63;;;22.90;97.40;;;23.44;63.22;99062.84;4993722;28;114734;-74
2022/07/21 03:52:58;;;;;;;7.00;6.30;;;22.90;97.40;;;23.45;62.84;99058.00;4986889;28;124259;-75
2022/07/21 03:55:25;;;;;;;7.13;6.13;;;23.00;97.40;;;23.44;62.75;99053.56;4989243;28;123643;-74
2022/07/21 03:57:56;;;;;;;6.60;5.83;;;22.90;97.30;;;23.40;62.82;99049.91;4980063;28;114543;-75
2022/07/21 04:00:29;;;;;;;8.83;7.67;;;22.90;97.30;;;23.35;63.01;99054.72;4985092;28;114256;-74
2022/07/21 04:02:57;;;;;;;9.73;6.30;;;22.90;97.30;;;23.34;63.02;99055.09;4990038;28;124575;-75
2022/07/21 04:05:24;;;;;;;7.57;6.60;;;22.90;97.30;;;23.33;63.29;99070.41;4990202;28;123619;-75
2022/07/21 04:07:52;;;;;;;9.50;7.40;;;22.90;97.40;;;23.31;63.45;99076.44;4980088;28;114349;-74
2022/07/21 04:10:29;;;;;;;10.10;7.13;;;22.80;97.50;;;23.30;63.28;99063.53;4981845;28;113680;-75
2022/07/21 04:12:59;;;;;;;7.73;6.77;;;22.80;97.50;;;23.28;63.47;99063.13;4971595;28;124719;-75
2022/07/21 04:15:26;;;;;;;7.40;6.53;;;22.80;97.60;;;23.29;63.41;99058.28;4971344;28;124243;-75
2022/07/21 04:17:53;;;;;;;7.63;6.83;;;22.80;97.90;;;23.29;63.59;99063.94;4977455;28;114101;-75
2022/07/21 04:20:20;;;;;;;11.30;7.87;;;22.80;97.60;;;23.29;63.77;99072.38;4992896;28;114336;-75
2022/07/21 04:22:48;;;;;;;11.50;8.63;;;22.80;97.70;;;23.27;63.76;99069.97;4987915;28;124493;-75
2022/07/21 04:25:16;;;;;;;9.47;7.13;;;21.80;97.30;;;23.28;63.79;99077.22;4988243;28;124372;-75
2022/07/21 04:27:44;;;;;;;8.80;7.27;;;22.80;97.70;;;23.28;63.82;99077.22;4975775;28;114034;-75
2022/07/21 04:30:18;;;;;;;8.93;7.40;;;22.80;97.80;;;23.31;64.02;99076.44;5010448;28;114137;-74
2022/07/21 04:32:45;;;;;;;8.60;7.50;;;22.90;97.90;;;23.33;63.78;99074.03;4991339;28;124106;-75
2022/07/21 04:35:12;;;;;;;10.97;8.17;;;22.80;97.90;;;23.37;63.86;99071.22;4988820;28;124483;-75
2022/07/21 04:37:40;;;;;;;8.50;7.60;;;22.90;98.00;;;23.40;64.07;99078.94;4978717;28;115699;-75
2022/07/21 04:40:09;;;;;;;8.63;6.90;;;22.90;98.00;;;23.41;63.87;99083.38;4983697;28;115027;-76
2022/07/21 04:42:36;;;;;;;9.00;7.90;;;22.90;97.90;;;23.41;63.77;99088.19;4987488;28;124072;-75
2022/07/21 04:45:05;;;;;;;10.90;7.77;;;22.90;97.80;;;23.40;63.34;99086.56;4987968;28;122907;-75
2022/07/21 04:47:32;;;;;;;10.13;7.20;;;22.90;97.80;;;23.38;63.54;99093.41;4981764;28;114072;-75
2022/07/21 04:49:58;;;;;;;8.50;7.47;;;22.90;97.70;;;23.40;63.47;99083.75;4975931;28;114024;-75
2022/07/21 04:52:25;;;;;;;7.93;7.10;;;22.90;97.70;;;23.42;63.45;99089.81;4982117;28;124863;-75
2022/07/21 04:54:51;;;;;;;8.97;7.77;;;23.00;97.70;;;23.43;63.60;99085.78;4975826;28;124059;-75
2022/07/21 04:57:18;;;;;;;9.83;7.07;;;23.00;97.80;;;23.45;63.44;99089.03;4988494;28;114040;-75
2022/07/21 04:59:44;;;;;;;8.90;7.70;;;23.00;97.80;;;23.49;63.56;99087.03;4976332;28;113470;-75
2022/07/21 05:02:11;;;;;;;10.40;7.50;;;23.00;97.80;;;23.52;63.43;99095.53;4973415;28;124400;-74
2022/07/21 05:04:37;;;;;;;8.17;6.80;;;23.00;97.90;;;23.54;63.47;99081.03;4987479;28;123718;-74
2022/07/21 05:07:04;;;;;;;8.17;6.53;;;23.00;97.80;;;23.55;63.25;99072.16;4984981;28;114337;-76
2022/07/21 05:09:30;;;;;;;9.17;7.90;;;23.00;97.70;;;23.60;63.37;99065.34;4977591;28;113932;-75
2022/07/21 05:11:57;;;;;;;9.37;7.73;;;23.00;97.70;;;23.64;63.13;99066.16;4983767;28;123726;-75
2022/07/21 05:14:23;;;;;;;7.50;6.47;;;23.10;97.80;;;23.67;63.03;99081.50;4979130;28;124474;-76
2022/07/21 05:16:50;;;;;;;9.93;7.63;;;23.10;97.70;;;23.70;63.10;99087.19;4976487;28;114858;-76
2022/07/21 05:19:16;;;;;;;8.33;7.40;;;23.10;97.70;;;23.74;62.87;99088.03;4970574;28;113931;-76
2022/07/21 05:21:43;;;;;;;10.90;6.50;;;23.20;97.70;;;23.78;62.77;99082.44;4968811;28;124367;-76
2022/07/21 05:24:10;;;;;;;8.30;7.07;;;23.20;97.60;;;23.81;62.69;99084.44;4970878;28;123883;-76
2022/07/21 05:26:36;;;;;;;7.43;6.73;;;23.20;97.50;;;23.85;62.33;99090.09;4970880;28;114644;-76
2022/07/21 05:29:03;;;;;;;7.57;6.40;;;23.30;97.40;;;23.88;62.24;99094.97;4974409;28;114668;-76
2022/07/21 05:31:30;;;;;;;9.73;7.17;;;23.30;97.30;;;23.90;61.93;99084.09;4975394;28;123996;-76
2022/07/21 05:33:56;;;;;;;8.93;6.83;;;23.30;97.10;;;23.91;61.85;99086.53;4977277;28;123886;-77
2022/07/21 05:36:23;;;;;;;11.27;7.40;;;23.40;97.00;;;23.93;61.73;99091.75;4977431;28;114110;-74
2022/07/21 05:38:49;;;;;;;9.17;6.20;;;23.40;96.80;;;23.93;61.59;99088.94;4975244;28;115193;-76
2022/07/21 05:41:16;;;;;;;8.73;7.10;;;23.40;96.70;;;23.92;61.48;99088.13;4979911;28;124582;-75
2022/07/21 05:43:42;;;;;;;8.53;7.20;;;23.40;96.60;;;23.94;61.16;99090.56;4977783;28;123976;-76
2022/07/21 05:46:09;;;;;;;8.70;7.80;;;23.40;96.50;;;23.93;60.95;99092.56;4979063;28;114499;-76
2022/07/21 05:48:35;;;;;;;7.27;6.50;;;23.40;96.30;;;23.94;61.18;99090.56;4962976;28;114037;-76
2022/07/21 05:51:02;;;;;;;8.97;7.33;;;23.40;96.40;;;23.96;61.20;99102.25;4986246;28;124040;-75
2022/07/21 05:53:28;;;;;;;7.80;7.00;;;23.40;96.40;;;23.97;61.22;99099.06;4994208;28;123817;-76
2022/07/21 05:55:55;;;;;;;9.80;7.47;;;23.50;96.40;;;24.00;61.12;99115.19;4992416;28;113498;-75
2022/07/21 05:58:24;;;;;;;8.23;6.83;;;23.50;96.30;;;24.04;61.01;99112.38;4985927;28;113282;-75
2022/07/21 06:01:12;;;;;;;9.43;7.30;;;23.50;96.30;;;24.06;60.78;99124.09;4978621;28;124316;-77
2022/07/21 06:03:43;;;;;;;7.33;6.60;;;23.50;96.20;;;24.06;60.70;99126.91;4992147;28;123672;-75
2022/07/21 06:06:12;;;;;;;13.43;6.87;;;23.50;96.10;;;24.12;60.56;99121.69;4991435;28;113586;-75
2022/07/21 06:08:41;;;;;;;7.60;6.23;;;23.60;96.10;;;24.18;60.32;99126.59;4986309;28;114278;-75
2022/07/21 06:11:09;;;;;;;9.50;7.30;;;23.60;96.00;;;24.22;60.24;99130.22;4979476;28;124357;-75
2022/07/21 06:13:36;;;;;;;7.47;6.67;;;23.60;95.90;;;24.29;59.87;99129.47;4989670;28;124352;-75
2022/07/21 06:16:03;;;;;;;7.57;6.60;;;23.70;95.90;;;24.40;59.90;99129.50;4987483;28;115275;-76
2022/07/21 06:18:30;;;;;;;12.83;7.70;;;23.80;95.90;;;24.48;60.03;99136.81;4994313;28;114660;-75
2022/07/21 06:20:56;;;;;;;9.23;7.10;;;23.90;95.90;;;24.54;59.29;99134.41;4988172;28;124044;-76
2022/07/21 06:23:23;;;;;;;6.53;5.50;;;23.90;95.60;;;24.55;58.85;99136.81;4979026;28;123683;-75
2022/07/21 06:25:51;;;;;;;7.67;6.33;;;23.90;95.20;;;24.57;58.17;99133.63;5013229;28;113874;-75
2022/07/21 06:28:19;;;;;;;11.50;7.53;;;23.90;94.90;;;24.56;58.05;99132.81;4996182;28;113895;-76
2022/07/21 06:30:49;;;;;;;8.33;6.40;;;24.00;94.60;;;24.59;57.84;99143.31;4983771;28;123567;-75
2022/07/21 06:33:16;;;;;;;12.53;6.77;;;24.00;94.40;;;24.57;57.52;99145.72;4989745;28;123816;-76
2022/07/21 06:35:43;;;;;;;10.10;7.27;;;24.00;94.10;;;24.46;57.51;99136.41;4991953;28;114878;-79
2022/07/21 06:38:10;;;;;;;9.90;8.00;;;23.90;93.90;;;24.41;57.88;99142.41;4991883;28;113983;-79
2022/07/21 06:40:36;;;;;;;7.37;6.63;;;23.90;94.00;;;24.38;57.96;99146.81;4989976;28;123220;-79
2022/07/21 06:43:03;;;;;;;7.37;6.60;;;23.90;94.10;;;24.38;57.75;99144.00;4991096;28;123865;-80
2022/07/21 06:45:29;;;;;;;7.10;6.40;;;23.90;94.10;;;24.33;57.51;99147.22;4986235;28;114979;-79
2022/07/21 06:48:01;;;;;;;7.30;6.53;;;23.90;93.80;;;24.32;57.56;99147.63;4989845;28;114065;-78
2022/07/21 06:50:28;;;;;;;8.43;6.70;;;23.80;93.80;;;24.38;57.15;99138.34;4991129;28;123253;-79
2022/07/21 06:52:54;;;;;;;11.57;7.93;;;23.90;93.80;;;24.48;57.04;99136.03;4983577;28;123795;-79
2022/07/21 06:55:21;;;;;;;9.37;7.00;;;23.90;93.60;;;24.56;56.91;99144.09;4989300;28;114384;-80
2022/07/21 06:57:48;;;;;;;12.33;7.27;;;24.00;93.60;;;24.62;56.33;99136.84;4992883;28;112908;-80
2022/07/21 07:00:15;;;;;;;9.43;7.00;;;24.00;93.30;;;24.66;56.16;99142.50;4983264;28;123900;-81
2022/07/21 07:02:41;;;;;;;7.00;6.13;;;24.00;93.10;;;24.68;56.13;99135.25;4984618;28;124051;-80
2022/07/21 07:05:08;;;;;;;8.90;6.50;;;24.10;93.00;;;24.77;56.10;99136.88;4970506;28;115189;-80
2022/07/21 07:07:35;;;;;;;8.57;6.67;;;24.20;93.10;;;24.85;55.78;99132.88;4971482;28;114310;-80
2022/07/21 07:10:02;;;;;;;8.90;6.63;;;24.20;92.90;;;24.94;55.08;99140.97;4990937;28;124142;-81
2022/07/21 07:12:29;;;;;;;9.37;6.40;;;24.30;92.70;;;25.03;54.97;99138.56;4992031;28;123245;-80
2022/07/21 07:14:55;;;;;;;9.20;7.07;;;24.30;92.50;;;25.10;54.70;99145.03;4976154;28;114305;-80
2022/07/21 07:17:22;;;;;;;9.20;6.47;;;24.40;92.40;;;25.11;54.63;99140.97;4973005;28;113073;-80
2022/07/21 07:19:48;;;;;;;8.30;5.90;;;24.50;92.30;;;25.16;54.42;99141.84;4987774;28;124131;-82
2022/07/21 07:22:15;;;;;;;6.63;5.93;;;24.50;92.20;;;25.24;53.81;99149.13;4977289;28;124127;-81
2022/07/21 07:24:42;;;;;;;6.90;6.20;;;24.60;91.90;;;25.33;53.61;99143.84;4971313;28;114230;-80
2022/07/21 07:27:08;;;;;;;7.67;6.70;;;24.60;91.80;;;25.37;53.21;99147.50;4983476;28;112851;-79
2022/07/21 07:29:35;;;;;;;8.90;6.57;;;24.70;91.70;;;25.43;53.29;99145.88;4979198;28;124235;-82
2022/07/21 07:32:04;;;;;;;7.20;6.50;;;24.70;91.70;;;25.51;53.38;99144.66;4989546;28;122603;-82
2022/07/21 07:34:30;;;;;;;10.27;7.10;;;24.90;91.70;;;25.56;53.59;99147.09;5003561;28;114242;-81
2022/07/21 07:36:57;;;;;;;9.97;6.90;;;24.90;91.70;;;25.62;52.95;99149.50;4972325;28;114009;-80
2022/07/21 07:39:23;;;;;;;9.60;6.77;;;24.90;91.50;;;25.63;52.97;99149.13;4987449;28;123644;-80
2022/07/21 07:41:50;;;;;;;8.30;6.63;;;24.90;91.30;;;25.60;52.63;99149.91;5010268;28;122799;-80
2022/07/21 07:44:16;;;;;;;8.90;6.90;;;24.90;91.20;;;25.62;52.49;99146.69;4970562;28;113548;-82
2022/07/21 07:46:43;;;;;;;7.13;6.00;;;25.00;91.10;;;25.60;52.18;99143.44;4985179;28;114078;-81
2022/07/21 07:49:09;;;;;;;8.00;5.73;;;25.00;90.80;;;25.57;52.40;99151.53;4976671;28;123889;-80
2022/07/21 07:51:35;;;;;;;7.70;5.70;;;25.00;90.70;;;25.66;51.51;99136.19;4979061;28;123739;-81
2022/07/21 07:54:03;;;;;;;7.13;5.83;;;25.10;90.50;;;25.72;51.63;99141.00;4985945;28;114783;-81
2022/07/21 07:56:30;;;;;;;6.93;6.00;;;25.10;90.30;;;25.79;51.08;99135.34;4986953;28;114870;-80
2022/07/21 07:58:57;;;;;;;8.27;5.87;;;25.20;90.20;;;25.90;50.53;99135.38;4986954;28;124253;-82
2022/07/21 08:01:24;;;;;;;7.23;6.37;;;25.20;89.80;;;25.92;50.53;99140.59;4981963;28;124363;-81
2022/07/21 08:03:50;;;;;;;6.50;4.93;;;25.30;89.30;;;25.99;50.11;99140.59;4999174;28;114080;-81
2022/07/21 08:06:17;;;;;;;7.63;6.20;;;25.30;89.00;;;26.08;49.98;99145.81;4970444;28;113354;-81
2022/07/21 08:08:43;;;;;;;8.10;6.40;;;25.40;89.10;;;26.16;50.01;99139.72;4977375;28;123244;-81
2022/07/21 08:11:11;;;;;;;6.57;5.33;;;25.50;89.00;;;26.26;49.88;99129.56;4990042;28;124225;-81
2022/07/21 08:13:38;;;;;;;8.40;6.03;;;25.50;88.60;;;26.33;49.27;99146.56;4988596;28;114352;-81
2022/07/21 08:16:05;;;;;;;5.93;5.40;;;25.60;87.50;;;26.38;48.55;99145.31;4988649;28;113256;-81
2022/07/21 08:18:31;;;;;;;7.80;6.00;;;25.70;87.80;;;26.41;48.80;99142.47;4989104;28;124617;-80
2022/07/21 08:20:58;;;;;;;6.90;6.00;;;25.70;86.60;;;26.39;48.29;99147.75;4988388;28;123877;-81
2022/07/21 08:23:24;;;;;;;8.80;6.30;;;25.70;86.40;;;26.32;47.47;99138.47;4981791;28;114154;-80
2022/07/21 08:25:51;;;;;;;9.07;5.30;;;25.70;84.60;;;26.30;47.13;99153.03;4991135;28;113982;-80
2022/07/21 08:28:17;;;;;;;6.37;5.20;;;25.70;84.30;;;26.27;46.67;99151.00;4988907;28;124253;-81
2022/07/21 08:30:44;;;;;;;5.80;5.20;;;25.70;83.50;;;26.21;46.97;99144.16;4981661;28;123596;-81
2022/07/21 08:33:10;;;;;;;7.40;5.83;;;25.70;82.90;;;26.15;46.73;99151.47;4978251;28;114580;-83
2022/07/21 08:35:37;;;;;;;12.53;5.17;;;25.70;82.80;;;26.13;46.80;99134.06;4980870;28;114051;-82
2022/07/21 08:38:07;;;;;;;6.60;5.50;;;25.70;83.00;;;26.20;47.59;99134.06;4978974;28;123775;-81
2022/07/21 08:40:39;;;;;;;8.17;6.20;;;25.70;83.40;;;26.25;46.85;99139.31;4972694;28;123815;-82
2022/07/21 08:43:08;;;;;;;12.30;6.57;;;25.70;83.10;;;26.30;46.90;99146.56;4977791;28;115523;-82
2022/07/21 08:45:36;;;;;;;9.70;5.57;;;25.70;83.30;;;26.31;46.93;99137.66;4987056;28;115746;-80
2022/07/21 08:48:03;;;;;;;6.23;5.33;;;25.70;83.10;;;26.35;46.68;99131.97;4981181;28;123216;-81
2022/07/21 08:50:35;;;;;;;7.95;5.25;;;25.70;83.10;;;26.36;46.75;99134.41;4972541;28;124196;-82
2022/07/21 08:53:02;;;;;;;8.17;5.67;;;25.80;83.00;;;26.34;46.88;99139.66;4987801;28;114523;-81
2022/07/21 08:55:30;;;;;;;6.53;4.90;;;25.80;82.80;;;26.36;47.24;99130.75;4997199;28;113885;-81
2022/07/21 08:57:57;;;;;;;8.10;5.10;;;25.80;82.80;;;26.42;46.59;99143.28;4991595;28;123346;-81
2022/07/21 09:00:24;;;;;;;7.47;5.70;;;25.80;82.50;;;26.47;46.63;99142.06;4989019;28;123838;-82
2022/07/21 09:03:34;;;;;;;6.23;5.07;;;25.90;82.10;;;26.47;46.11;99142.06;4996185;28;114095;-82
2022/07/21 09:06:08;;;;;;;5.40;4.90;;;25.90;82.00;;;26.50;46.42;99133.53;4978125;28;113961;-80
2022/07/21 09:08:41;;;;;;;6.23;5.40;;;25.90;81.70;;;26.55;45.83;99135.97;4991707;28;124090;-80
2022/07/21 09:11:12;;;;;;;7.90;5.70;;;26.00;81.50;;;26.60;45.57;99126.22;4987631;28;123701;-80
2022/07/21 09:13:41;;;;;;;6.37;5.57;;;26.00;81.10;;;26.66;45.16;99121.72;4989598;28;114749;-81
2022/07/21 09:16:08;;;;;;;5.60;5.03;;;26.10;80.50;;;26.70;44.94;99122.50;4987972;28;113115;-82
2022/07/21 09:18:51;;;;;;;7.37;5.40;;;26.10;79.90;;;26.70;43.97;99116.84;4991539;28;124830;-81
2022/07/21 09:21:20;;;;;;;7.87;4.57;;;26.10;78.40;;;26.71;44.52;99120.50;4979988;28;123783;-81
2022/07/21 09:23:46;;;;;;;5.40;4.67;;;26.10;78.60;;;26.77;44.06;99124.50;4987081;28;114373;-80
2022/07/21 09:26:13;;;;;;;7.17;5.03;;;26.20;78.20;;;26.74;43.50;99126.13;4988938;28;113143;-81
2022/07/21 09:28:40;;;;;;;6.63;4.80;;;26.20;77.50;;;26.69;43.26;99123.72;4989870;28;123723;-80
2022/07/21 09:31:10;;;;;;;4.57;3.57;;;26.20;76.90;;;26.70;43.39;99116.84;4975021;28;124326;-80
2022/07/21 09:33:43;;;;;;;6.17;4.03;;;26.20;76.90;;;26.75;43.33;99133.41;4978006;28;114507;-81
2022/07/21 09:36:15;;;;;;;5.87;5.00;;;26.30;76.10;;;26.78;42.63;99115.56;5000867;28;114133;-81
2022/07/21 09:38:47;;;;;;;5.63;4.33;;;26.30;75.80;;;26.82;42.40;99124.88;5003258;28;124203;-81
2022/07/21 09:41:22;;;;;;;4.70;4.13;;;26.30;75.30;;;26.83;42.86;99120.81;5007887;28;124477;-81
2022/07/21 09:43:57;;;;;;;5.17;4.23;;;26.30;75.40;;;26.84;42.42;99116.78;4977866;28;114119;-81
2022/07/21 09:46:29;;;;;;;6.00;4.80;;;26.30;75.00;;;26.86;42.45;99122.81;5012975;28;114734;-80
2022/07/21 09:49:07;;;;;;;5.60;4.40;;;26.30;74.60;;;26.86;42.37;99116.34;5014424;28;124151;-81
2022/07/21 09:51:39;;;;;;;5.00;4.50;;;26.30;74.20;;;26.81;42.50;99114.75;4993352;28;123892;-80
2022/07/21 09:54:09;;;;;;;6.00;4.50;;;26.30;74.20;;;26.83;42.47;99112.28;4976252;28;115071;-81
2022/07/21 09:56:41;;;;;;;6.67;4.80;;;26.40;74.50;;;26.91;42.62;99117.94;4993478;28;114441;-81
2022/07/21 09:59:10;;;;;;;6.20;4.57;;;26.40;74.60;;;26.99;42.41;99108.16;4989279;28;124012;-82
2022/07/21 10:01:38;;;;;;;6.60;4.33;;;26.50;74.50;;;27.05;42.68;99115.78;4993058;28;121929;-80
2022/07/21 10:04:06;;;;;;;6.50;5.10;;;26.50;74.50;;;27.15;42.47;99108.44;5011301;28;114149;-80
2022/07/21 10:06:40;;;;;;;6.10;4.40;;;26.60;74.60;;;27.23;41.87;99118.53;4996540;28;112891;-79
2022/07/21 10:09:09;;;;;;;5.33;4.30;;;26.70;73.50;;;27.25;40.88;99104.75;4985733;28;121975;-82
2022/07/21 10:11:38;;;;;;;4.30;3.90;;;26.70;72.60;;;27.27;41.00;99096.63;4990145;28;123389;-81
2022/07/21 10:14:05;;;;;;;5.83;3.90;;;26.70;72.00;;;27.29;40.70;99094.16;4961749;28;112650;-79
2022/07/21 10:16:31;;;;;;;5.80;3.73;;;26.80;71.90;;;27.35;40.86;99103.03;4946624;28;113663;-80